Time;durP1;ratioP1;P1;durP2;ratioP2;P2;SDS_P1;SDS_P2;PMS_P1;PMS_P2;Temp;Humidity;BMP_temperature;BMP_pressure;BME280_temperature;BME280_humidity;BME280_pressure;Samples;Min_cycle;Max_cycle;Signal;HPM_P1;HPM_P2
2021/10/31 00:01:59;;;;;;;10.60;4.90;;;11.50;99.90;;;12.15;100.00;97445.59;5038516;28;20866;-80
2021/10/31 00:04:28;;;;;;;10.53;5.80;;;11.40;99.90;;;12.15;100.00;97442.97;5037786;28;20866;-80
2021/10/31 00:06:56;;;;;;;7.00;6.07;;;11.40;99.90;;;12.15;100.00;97445.59;5025350;28;20966;-80
2021/10/31 00:09:25;;;;;;;7.77;5.70;;;11.50;99.90;;;12.17;100.00;97442.78;5031960;28;20462;-80
2021/10/31 00:11:55;;;;;;;12.37;5.17;;;11.40;99.90;;;12.18;100.00;97455.69;5041856;28;20462;-80
2021/10/31 00:14:23;;;;;;;6.70;5.33;;;11.50;99.90;;;12.17;100.00;97454.06;5035636;28;20473;-80
2021/10/31 00:16:58;;;;;;;7.47;5.70;;;11.40;99.90;;;12.18;100.00;97460.91;5039963;28;20461;-80
2021/10/31 00:19:28;;;;;;;8.00;6.00;;;11.50;99.90;;;12.20;100.00;97458.06;5040363;28;20559;-80
2021/10/31 00:21:57;;;;;;;10.43;5.03;;;11.50;99.90;;;12.19;100.00;97456.47;5037869;28;20462;-80
2021/10/31 00:24:26;;;;;;;7.17;5.50;;;11.50;99.90;;;12.19;100.00;97451.22;5033636;28;20500;-80
2021/10/31 00:26:55;;;;;;;8.87;5.27;;;11.50;99.90;;;12.18;100.00;97458.31;5038338;28;20495;-80
2021/10/31 00:29:24;;;;;;;8.37;4.60;;;11.40;99.90;;;12.17;100.00;97464.56;5036922;28;20856;-80
2021/10/31 00:31:53;;;;;;;6.30;4.57;;;11.40;99.90;;;12.21;100.00;97470.19;5032810;28;20489;-80
2021/10/31 00:34:21;;;;;;;11.30;5.00;;;11.50;99.90;;;12.20;100.00;97474.59;5034436;28;20909;-80
2021/10/31 00:36:50;;;;;;;6.80;4.40;;;11.50;99.90;;;12.21;100.00;97470.97;5038474;28;20445;-80
2021/10/31 00:39:18;;;;;;;7.60;4.87;;;11.50;99.90;;;12.21;100.00;97464.94;5035576;28;20472;-80
2021/10/31 00:41:47;;;;;;;7.40;5.00;;;11.40;99.90;;;12.20;100.00;97458.88;5035511;28;20461;-80
2021/10/31 00:44:18;;;;;;;7.67;4.50;;;11.50;99.90;;;12.21;100.00;97465.75;5031081;28;20531;-80
2021/10/31 00:46:46;;;;;;;5.80;4.33;;;11.50;99.90;;;12.19;100.00;97459.88;5033388;28;20488;-80
2021/10/31 00:49:15;;;;;;;10.17;4.60;;;11.40;99.90;;;12.20;100.00;97464.13;5038137;28;20485;-80
2021/10/31 00:51:46;;;;;;;10.27;5.17;;;11.50;99.90;;;12.22;100.00;97456.06;5030870;28;20556;-80
2021/10/31 00:54:16;;;;;;;8.40;4.70;;;11.50;99.90;;;12.22;100.00;97456.84;5041173;28;20525;-80
2021/10/31 00:56:44;;;;;;;7.20;4.50;;;11.50;99.90;;;12.24;100.00;97459.25;5038549;28;20465;-80
2021/10/31 00:59:13;;;;;;;6.60;4.50;;;11.50;99.90;;;12.25;100.00;97472.13;5037540;28;20492;-80
2021/10/31 01:01:43;;;;;;;6.67;4.47;;;11.60;99.90;;;12.26;100.00;97465.88;5031414;28;20474;-80
2021/10/31 01:04:19;;;;;;;13.00;4.23;;;11.60;99.90;;;12.27;100.00;97464.88;5039121;28;21058;-80
2021/10/31 01:07:49;;;;;;;9.70;4.20;;;11.60;99.90;;;12.28;100.00;97461.25;5030984;28;21135;-80
2021/10/31 01:10:34;;;;;;;12.93;4.47;;;11.60;99.90;;;12.29;100.00;97462.03;5030543;28;20592;-80
2021/10/31 01:13:32;;;;;;;8.30;4.33;;;11.60;99.90;;;12.28;100.00;97455.22;5030136;28;20527;-80
2021/10/31 01:16:20;;;;;;;19.23;4.30;;;11.60;99.90;;;12.26;100.00;97460.66;5037147;28;20470;-80
2021/10/31 01:19:23;;;;;;;6.30;4.10;;;11.60;99.90;;;12.26;100.00;97471.13;5036932;28;20465;-80
2021/10/31 01:22:03;;;;;;;6.87;4.03;;;11.50;99.90;;;12.27;100.00;97470.13;5041132;28;20491;-80
2021/10/31 01:24:59;;;;;;;14.43;4.60;;;11.60;99.90;;;12.27;100.00;97469.31;5033023;28;20453;-80
2021/10/31 01:27:48;;;;;;;6.37;4.33;;;11.50;99.90;;;12.27;100.00;97469.31;5041785;28;20517;-80
2021/10/31 01:30:30;;;;;;;6.37;4.20;;;11.60;99.90;;;12.25;100.00;97466.91;5034322;28;20462;-80
2021/10/31 01:33:07;;;;;;;7.10;4.73;;;11.50;99.90;;;12.26;100.00;97467.69;5035057;28;20493;-80
2021/10/31 01:36:00;;;;;;;5.43;4.37;;;11.60;99.90;;;12.25;100.00;97456.41;5029680;28;20559;-81
2021/10/31 01:38:45;;;;;;;12.30;4.00;;;11.60;99.90;;;12.25;100.00;97456.41;5033439;28;20551;-80
2021/10/31 01:41:26;;;;;;;5.20;4.30;;;11.60;99.90;;;12.22;100.00;97451.59;5036540;28;20513;-80
2021/10/31 01:44:01;;;;;;;6.17;4.30;;;11.50;99.90;;;12.21;100.00;97450.00;5039297;28;20469;-80
2021/10/31 01:46:42;;;;;;;4.60;4.00;;;11.50;99.90;;;12.20;100.00;97448.41;5030723;28;20462;-80
2021/10/31 01:49:26;;;;;;;9.47;4.30;;;11.50;99.90;;;12.19;100.00;97436.28;5036441;28;20458;-80
2021/10/31 01:52:00;;;;;;;6.10;4.07;;;11.50;99.90;;;12.19;100.00;97441.53;5035052;28;20562;-80
2021/10/31 01:54:38;;;;;;;5.50;3.70;;;11.50;99.90;;;12.15;100.00;97440.34;5037890;28;20547;-80
2021/10/31 01:57:12;;;;;;;11.90;5.50;;;11.50;99.90;;;12.17;100.00;97442.78;5030364;28;20523;-80
2021/10/31 01:59:47;;;;;;;5.30;4.47;;;11.50;99.90;;;12.16;100.00;97446.41;5035078;28;20517;-80
2021/10/31 02:02:20;;;;;;;5.77;4.00;;;11.50;99.90;;;12.14;100.00;97441.38;5032239;28;20953;-80
2021/10/31 02:04:52;;;;;;;6.00;4.33;;;11.50;99.90;;;12.09;100.00;97447.25;5036925;28;21013;-80
2021/10/31 02:07:23;;;;;;;7.70;4.33;;;11.40;99.90;;;12.05;100.00;97435.56;5031645;28;20769;-80
2021/10/31 02:09:53;;;;;;;4.53;4.10;;;11.30;99.90;;;12.02;100.00;97450.91;5035587;28;20461;-80
2021/10/31 02:12:23;;;;;;;8.47;4.30;;;11.20;99.90;;;11.99;100.00;97454.78;5033621;28;20551;-80
2021/10/31 02:14:54;;;;;;;6.63;4.70;;;11.20;99.90;;;11.98;100.00;97454.97;5041044;28;20522;-80
2021/10/31 02:17:23;;;;;;;5.50;4.40;;;11.20;99.90;;;11.97;100.00;97448.94;5035650;28;20930;-80
2021/10/31 02:19:53;;;;;;;6.97;4.27;;;11.20;99.90;;;11.94;100.00;97451.19;5028338;28;20490;-81
2021/10/31 02:22:31;;;;;;;7.50;4.50;;;11.20;99.90;;;11.90;100.00;97460.47;5041143;28;20473;-80
2021/10/31 02:25:02;;;;;;;9.63;4.57;;;11.10;99.90;;;11.90;100.00;97460.47;5033176;28;20456;-80
2021/10/31 02:27:35;;;;;;;7.00;4.87;;;11.20;99.90;;;11.86;100.00;97456.66;5035635;28;20465;-80
2021/10/31 02:30:06;;;;;;;7.90;5.10;;;11.00;99.90;;;11.86;100.00;97449.59;5037122;28;20481;-80
2021/10/31 02:32:35;;;;;;;11.10;4.93;;;11.10;99.90;;;11.85;100.00;97442.75;5040489;28;20550;-80
2021/10/31 02:35:05;;;;;;;6.77;5.10;;;11.10;99.90;;;11.86;100.00;97456.66;5032381;28;20939;-80
2021/10/31 02:37:34;;;;;;;6.50;4.67;;;11.10;99.90;;;11.85;100.00;97444.56;5032139;28;20462;-80
2021/10/31 02:40:06;;;;;;;9.63;5.93;;;11.10;99.90;;;11.83;100.00;97446.59;5039092;28;20501;-80
2021/10/31 02:42:36;;;;;;;5.30;4.20;;;11.00;99.90;;;11.81;100.00;97449.41;5037932;28;20528;-80
2021/10/31 02:45:06;;;;;;;11.23;5.40;;;11.00;99.90;;;11.78;100.00;97449.03;5041610;28;20974;-80
2021/10/31 02:47:46;;;;;;;13.30;4.93;;;11.00;99.90;;;11.78;100.00;97459.50;5029175;28;20504;-80
2021/10/31 02:50:18;;;;;;;5.80;4.87;;;11.00;99.90;;;11.75;100.00;97459.94;5041314;28;20503;-80
2021/10/31 02:53:08;;;;;;;7.47;4.80;;;11.00;99.90;;;11.72;100.00;97455.13;5036923;28;20534;-80
2021/10/31 02:55:51;;;;;;;9.97;4.53;;;10.90;99.90;;;11.68;100.00;97459.94;5027696;28;20540;-80
2021/10/31 02:58:29;;;;;;;7.77;4.70;;;10.90;99.90;;;11.66;100.00;97469.81;5038291;28;20571;-80
2021/10/31 03:01:02;;;;;;;9.90;4.80;;;10.80;99.90;;;11.66;100.00;97466.41;5030100;28;20865;-80
2021/10/31 03:03:34;;;;;;;7.60;4.63;;;10.90;99.90;;;11.65;100.00;97460.34;5036029;28;20501;-80
2021/10/31 03:06:04;;;;;;;5.83;5.23;;;10.90;99.90;;;11.62;100.00;97458.16;5039462;28;20500;-80
2021/10/31 03:08:34;;;;;;;5.83;4.67;;;10.80;99.90;;;11.56;100.00;97451.91;5029425;28;20970;-80
2021/10/31 03:11:08;;;;;;;5.83;5.17;;;10.70;99.90;;;11.52;100.00;97461.19;5033187;28;20465;-80
2021/10/31 03:13:38;;;;;;;6.33;5.73;;;10.70;99.90;;;11.51;100.00;97456.19;5029614;28;20527;-80
2021/10/31 03:16:09;;;;;;;7.60;5.93;;;10.70;99.90;;;11.44;100.00;97450.97;5030963;28;20512;-80
2021/10/31 03:18:37;;;;;;;10.60;7.27;;;10.60;99.90;;;11.40;100.00;97462.84;5029317;28;20881;-80
2021/10/31 03:21:06;;;;;;;8.73;5.83;;;10.50;99.90;;;11.37;100.00;97465.91;5040062;28;20518;-80
2021/10/31 03:23:34;;;;;;;5.33;4.73;;;10.50;99.90;;;11.31;100.00;97464.09;5035768;28;20564;-80
2021/10/31 03:26:04;;;;;;;11.30;5.70;;;10.40;99.90;;;11.30;100.00;97467.72;5038911;28;20462;-80
2021/10/31 03:28:33;;;;;;;5.50;4.93;;;10.40;99.90;;;11.25;100.00;97467.53;5034883;28;20457;-80
2021/10/31 03:31:02;;;;;;;13.17;5.47;;;10.40;99.90;;;11.19;100.00;97465.72;5037412;28;20489;-80
2021/10/31 03:33:31;;;;;;;5.63;4.53;;;10.30;99.90;;;11.20;100.00;97464.72;5030239;28;20461;-80
2021/10/31 03:35:59;;;;;;;7.73;5.17;;;10.30;99.90;;;11.21;100.00;97462.94;5032445;28;20486;-80
2021/10/31 03:38:28;;;;;;;11.00;5.30;;;10.30;99.90;;;11.23;100.00;97460.91;5034058;28;20470;-80
2021/10/31 03:40:57;;;;;;;8.20;5.77;;;10.40;99.90;;;11.24;100.00;97465.13;5039159;28;20570;-80
2021/10/31 03:43:27;;;;;;;8.30;6.17;;;10.40;99.90;;;11.22;100.00;97465.31;5030069;28;20533;-80
2021/10/31 03:45:56;;;;;;;24.20;5.00;;;10.40;99.90;;;11.25;100.00;97464.09;5028391;28;20470;-80
2021/10/31 03:48:24;;;;;;;7.73;5.50;;;10.40;99.90;;;11.24;100.00;97463.31;5038215;28;20958;-80
2021/10/31 03:50:53;;;;;;;7.23;5.30;;;10.40;99.90;;;11.25;100.00;97464.09;5031971;28;20588;-80
2021/10/31 03:53:21;;;;;;;10.50;4.77;;;10.40;99.90;;;11.23;100.00;97456.47;5032574;28;20528;-80
2021/10/31 03:55:50;;;;;;;15.37;5.50;;;10.40;99.90;;;11.24;100.00;97458.09;5033487;28;20477;-80
2021/10/31 03:58:18;;;;;;;7.17;5.10;;;10.40;99.90;;;11.26;100.00;97463.91;5028041;28;21045;-80
2021/10/31 04:00:48;;;;;;;12.37;5.27;;;10.40;99.90;;;11.26;100.00;97460.47;5035903;28;20487;-80
2021/10/31 04:03:17;;;;;;;5.10;4.57;;;10.40;99.90;;;11.25;100.00;97458.88;5033230;28;20477;-80
2021/10/31 04:05:46;;;;;;;13.00;7.20;;;10.40;99.90;;;11.24;100.00;97458.09;5030420;28;20882;-80
2021/10/31 04:08:14;;;;;;;6.27;5.17;;;10.40;99.90;;;11.25;100.00;97458.88;5036611;28;20519;-80
2021/10/31 04:10:43;;;;;;;4.50;3.90;;;10.40;99.90;;;11.25;100.00;97462.28;5032230;28;20520;-80
2021/10/31 04:13:12;;;;;;;5.30;4.80;;;10.40;99.90;;;11.25;100.00;97459.66;5027391;28;20493;-81
2021/10/31 04:15:42;;;;;;;11.20;6.03;;;10.40;99.90;;;11.26;100.00;97450.81;5031399;28;20468;-80
2021/10/31 04:18:12;;;;;;;7.73;4.20;;;10.40;99.90;;;11.26;100.00;97460.47;5039540;28;20544;-80
2021/10/31 04:20:41;;;;;;;4.83;4.33;;;10.40;99.90;;;11.27;100.00;97456.88;5037171;28;20861;-81
2021/10/31 04:23:09;;;;;;;6.63;4.50;;;10.50;99.90;;;11.28;100.00;97455.88;5040053;28;20512;-80
2021/10/31 04:25:38;;;;;;;4.97;4.33;;;10.40;99.90;;;11.29;100.00;97465.31;5048510;28;20532;-80
2021/10/31 04:28:06;;;;;;;4.33;3.93;;;10.40;99.90;;;11.28;100.00;97464.50;5039651;28;20512;-80
2021/10/31 04:30:35;;;;;;;10.93;4.50;;;10.50;99.90;;;11.31;100.00;97473.78;5048877;28;20452;-80
2021/10/31 04:33:03;;;;;;;6.87;3.87;;;10.40;99.90;;;11.33;100.00;97476.97;5031551;28;20584;-80
2021/10/31 04:35:33;;;;;;;10.90;6.77;;;10.50;99.90;;;11.34;100.00;97468.13;5040822;28;20486;-81
2021/10/31 04:38:09;;;;;;;10.30;4.60;;;10.50;99.90;;;11.34;100.00;97462.88;5043712;28;20493;-80
2021/10/31 04:40:39;;;;;;;6.50;4.83;;;10.60;99.90;;;11.35;100.00;97462.66;5032254;28;20462;-79
2021/10/31 04:43:11;;;;;;;4.40;4.00;;;10.50;99.90;;;11.36;100.00;97466.91;5044875;28;20453;-80
2021/10/31 04:45:42;;;;;;;17.83;4.27;;;10.50;99.90;;;11.38;100.00;97469.31;5037847;28;20465;-80
2021/10/31 04:48:12;;;;;;;4.73;4.13;;;10.60;99.90;;;11.39;100.00;97461.25;5030973;28;20458;-80
2021/10/31 04:50:43;;;;;;;13.10;5.30;;;10.60;99.90;;;11.39;100.00;97456.00;5043572;28;20446;-79
2021/10/31 04:53:11;;;;;;;8.13;4.63;;;10.60;99.90;;;11.39;100.00;97449.97;5030473;28;20548;-80
2021/10/31 04:55:42;;;;;;;6.10;4.67;;;10.60;99.90;;;11.40;100.00;97449.78;5030735;28;20516;-81
2021/10/31 04:58:11;;;;;;;5.23;4.73;;;10.60;99.90;;;11.40;100.00;97441.09;5039974;28;20484;-80
2021/10/31 05:00:40;;;;;;;4.43;4.03;;;10.60;99.90;;;11.41;100.00;97445.34;5050008;28;20491;-80
2021/10/31 05:03:09;;;;;;;5.40;4.90;;;10.60;99.90;;;11.42;100.00;97442.50;5039912;28;20457;-80
2021/10/31 05:05:37;;;;;;;6.77;4.63;;;10.60;99.90;;;11.43;100.00;97446.72;5035562;28;20460;-80
2021/10/31 05:08:07;;;;;;;8.43;4.83;;;10.70;99.90;;;11.43;100.00;97444.13;5030919;28;20501;-80
2021/10/31 05:10:36;;;;;;;10.33;5.00;;;10.60;99.90;;;11.45;100.00;97443.94;5032204;28;20532;-80
2021/10/31 05:13:04;;;;;;;5.10;4.60;;;10.70;99.90;;;11.45;100.00;97438.69;5047348;28;20559;-80
2021/10/31 05:15:33;;;;;;;14.90;4.33;;;10.70;99.90;;;11.46;100.00;97432.41;5030688;28;20946;-80
2021/10/31 05:18:02;;;;;;;9.40;4.77;;;10.80;99.90;;;11.44;100.00;97432.66;5032290;28;20893;-80
2021/10/31 05:20:31;;;;;;;7.30;4.27;;;10.70;99.90;;;11.45;100.00;97423.75;5030080;28;20994;-81
2021/10/31 05:22:59;;;;;;;20.20;11.03;;;10.60;99.90;;;11.46;100.00;97430.59;5033051;28;20462;-80
2021/10/31 05:25:29;;;;;;;9.03;5.77;;;10.60;99.90;;;11.46;100.00;97421.94;5030990;28;20580;-81
2021/10/31 05:27:57;;;;;;;13.33;5.40;;;10.70;99.90;;;11.46;100.00;97421.94;5032172;28;21060;-81
2021/10/31 05:30:26;;;;;;;6.87;4.23;;;10.60;99.90;;;11.45;100.00;97420.38;5035328;28;20544;-81
2021/10/31 05:32:54;;;;;;;11.87;4.50;;;10.60;99.90;;;11.46;100.00;97421.94;5030564;28;20494;-81
2021/10/31 05:35:23;;;;;;;12.60;5.23;;;10.60;99.90;;;11.45;100.00;97415.91;5031417;28;20458;-81
2021/10/31 05:37:57;;;;;;;8.43;5.13;;;10.60;99.90;;;11.46;100.00;97414.91;5028485;28;20555;-81
2021/10/31 05:40:27;;;;;;;8.63;4.77;;;10.70;99.90;;;11.45;100.00;97418.53;5031755;28;20478;-81
2021/10/31 05:42:57;;;;;;;10.27;4.40;;;10.70;99.90;;;11.47;100.00;97424.38;5031107;28;20453;-81
2021/10/31 05:45:26;;;;;;;9.17;4.70;;;10.60;99.90;;;11.46;100.00;97422.75;5030749;28;20472;-81
2021/10/31 05:47:56;;;;;;;9.70;4.20;;;10.70;99.90;;;11.47;100.00;97416.53;5032058;28;20508;-81
2021/10/31 05:50:24;;;;;;;5.50;4.67;;;10.70;99.90;;;11.48;100.00;97412.91;5031592;28;20452;-81
2021/10/31 05:52:53;;;;;;;4.87;4.37;;;10.70;99.90;;;11.46;100.00;97417.53;5027616;28;20508;-81
2021/10/31 05:55:22;;;;;;;10.10;4.57;;;10.60;99.90;;;11.48;100.00;97415.50;5036661;28;20492;-81
2021/10/31 05:57:50;;;;;;;7.87;4.47;;;10.70;99.90;;;11.45;100.00;97404.66;5031537;28;20976;-81
2021/10/31 06:00:21;;;;;;;10.53;5.37;;;10.60;99.90;;;11.48;100.00;97396.38;5031688;28;20458;-81
2021/10/31 06:02:50;;;;;;;6.60;4.77;;;10.70;99.90;;;11.48;100.00;97399.81;5030542;28;20461;-81
2021/10/31 06:05:19;;;;;;;7.60;3.80;;;10.60;99.90;;;11.49;100.00;97409.25;5035044;28;20787;-80
2021/10/31 06:07:48;;;;;;;14.60;5.37;;;10.70;99.90;;;11.50;100.00;97412.66;5030664;28;20512;-81
2021/10/31 06:10:16;;;;;;;5.40;4.90;;;10.60;99.90;;;11.50;100.00;97396.97;5029695;28;20490;-80
2021/10/31 06:12:48;;;;;;;10.20;4.53;;;10.70;99.90;;;11.50;100.00;97405.63;5038469;28;20576;-81
2021/10/31 06:15:22;;;;;;;11.93;4.60;;;10.70;99.90;;;11.50;100.00;97413.47;5033918;28;20469;-80
2021/10/31 06:17:51;;;;;;;75.07;37.87;;;10.70;99.90;;;11.52;100.00;97398.34;5031612;28;20469;-81
2021/10/31 06:20:19;;;;;;;29.83;18.33;;;10.70;99.90;;;11.53;100.00;97391.31;5028915;28;20461;-81
2021/10/31 06:22:48;;;;;;;10.13;6.30;;;10.70;99.90;;;11.52;100.00;97398.34;5030683;28;20469;-80
2021/10/31 06:25:16;;;;;;;9.30;4.60;;;10.70;99.90;;;11.53;100.00;97394.72;5032479;28;20465;-81
2021/10/31 06:27:45;;;;;;;4.30;3.90;;;10.70;99.90;;;11.51;100.00;97393.34;5036144;28;20469;-80
2021/10/31 06:30:14;;;;;;;7.57;4.13;;;10.70;99.90;;;11.50;100.00;97399.59;5030202;28;20973;-80
2021/10/31 06:32:44;;;;;;;7.33;4.37;;;10.60;99.90;;;11.50;100.00;97389.91;5037047;28;20454;-80
2021/10/31 06:35:13;;;;;;;5.37;4.53;;;10.70;99.90;;;11.51;100.00;97388.91;5030991;28;20473;-80
2021/10/31 06:37:42;;;;;;;6.83;5.50;;;10.70;99.90;;;11.51;100.00;97385.47;5033606;28;20827;-80
2021/10/31 06:40:12;;;;;;;7.77;5.10;;;10.70;99.90;;;11.53;100.00;97386.06;5031098;28;20525;-80
2021/10/31 06:42:41;;;;;;;6.70;5.60;;;10.70;99.90;;;11.52;100.00;97382.63;5031502;28;20457;-80
2021/10/31 06:45:10;;;;;;;5.67;4.77;;;10.70;99.90;;;11.53;100.00;97384.25;5034331;28;20478;-81
2021/10/31 06:47:39;;;;;;;4.57;4.07;;;10.70;99.90;;;11.55;100.00;97377.00;5029204;28;20946;-83
2021/10/31 06:50:10;;;;;;;11.30;5.27;;;10.80;99.90;;;11.57;100.00;97372.34;5033220;28;21146;-83
2021/10/31 06:52:38;;;;;;;10.20;4.83;;;10.80;99.90;;;11.58;100.00;97360.06;5033072;28;20457;-83
2021/10/31 06:55:10;;;;;;;16.83;4.90;;;10.90;99.90;;;11.60;100.00;97363.28;5029135;28;20636;-83
2021/10/31 06:57:40;;;;;;;11.83;4.83;;;10.80;99.90;;;11.58;100.00;97360.88;5031509;28;20851;-83
2021/10/31 07:00:11;;;;;;;8.20;4.43;;;10.80;99.90;;;11.60;100.00;97363.28;5034974;28;20541;-82
2021/10/31 07:02:39;;;;;;;4.80;4.03;;;10.90;99.90;;;11.63;100.00;97359.44;5037281;28;20966;-82
2021/10/31 07:05:10;;;;;;;10.70;4.70;;;10.90;99.90;;;11.66;100.00;97357.22;5032703;28;20492;-81
2021/10/31 07:07:39;;;;;;;9.50;4.87;;;10.90;99.90;;;11.68;100.00;97349.94;5026239;28;20458;-80
2021/10/31 07:10:09;;;;;;;7.57;4.80;;;10.90;99.90;;;11.70;100.00;97345.28;5031489;28;21033;-81
2021/10/31 07:12:38;;;;;;;11.47;4.83;;;11.00;99.90;;;11.73;100.00;97349.34;5032669;28;20492;-81
2021/10/31 07:15:08;;;;;;;9.70;4.90;;;11.00;99.90;;;11.75;100.00;97344.69;5029790;28;20564;-82
2021/10/31 07:17:39;;;;;;;9.80;4.80;;;11.00;99.90;;;11.77;100.00;97346.06;5040055;28;20465;-84
2021/10/31 07:20:13;;;;;;;12.33;5.40;;;11.10;99.90;;;11.81;100.00;97341.22;5037678;28;20630;-81
2021/10/31 07:22:42;;;;;;;5.93;4.83;;;11.10;99.90;;;11.83;100.00;97341.81;5039131;28;20442;-83
2021/10/31 07:25:12;;;;;;;6.90;4.50;;;11.10;99.90;;;11.86;100.00;97336.16;5026610;28;20476;-81
2021/10/31 07:27:40;;;;;;;32.43;17.30;;;11.10;99.90;;;11.88;100.00;97342.78;5031843;28;20493;-81
2021/10/31 07:30:11;;;;;;;13.00;5.73;;;11.20;99.90;;;11.92;100.00;97343.97;5035037;28;20558;-82
2021/10/31 07:32:40;;;;;;;5.97;4.53;;;11.20;99.90;;;11.94;100.00;97335.91;5034276;28;20723;-81
2021/10/31 07:35:11;;;;;;;6.70;5.20;;;11.20;99.90;;;11.98;100.00;97342.31;5035343;28;20493;-81
2021/10/31 07:37:39;;;;;;;5.40;4.53;;;11.30;99.90;;;12.00;100.00;97340.28;5032968;28;20467;-82
2021/10/31 07:40:09;;;;;;;10.70;5.17;;;11.30;99.90;;;12.02;100.00;97336.44;5041448;28;20971;-82
2021/10/31 07:42:38;;;;;;;10.30;7.43;;;11.30;99.90;;;12.05;100.00;97335.19;5037027;28;20539;-82
2021/10/31 07:45:08;;;;;;;10.27;6.43;;;11.40;99.90;;;12.07;100.00;97327.94;5027329;28;20493;-82
2021/10/31 07:47:36;;;;;;;11.90;6.80;;;11.40;99.90;;;12.08;100.00;97325.09;5033220;28;20503;-82
2021/10/31 07:50:07;;;;;;;8.87;6.13;;;11.40;99.90;;;12.11;100.00;97318.63;5035817;28;20472;-81
2021/10/31 07:52:42;;;;;;;9.93;6.50;;;11.40;99.90;;;12.14;100.00;97318.19;5036677;28;20484;-82
2021/10/31 07:55:15;;;;;;;12.40;6.47;;;11.40;99.90;;;12.17;100.00;97320.38;5034221;28;20524;-82
2021/10/31 07:57:45;;;;;;;10.60;6.47;;;11.50;99.90;;;12.21;100.00;97318.13;5037911;28;20519;-82
2021/10/31 08:00:15;;;;;;;9.53;6.43;;;11.60;99.90;;;12.25;100.00;97307.00;5037846;28;20465;-83
2021/10/31 08:02:44;;;;;;;11.80;6.10;;;11.60;99.90;;;12.29;100.00;97309.97;5032992;28;20478;-82
2021/10/31 08:05:13;;;;;;;9.50;5.50;;;11.60;99.90;;;12.32;100.00;97307.72;5032490;28;20465;-82
2021/10/31 08:07:43;;;;;;;8.47;5.40;;;11.70;99.90;;;12.35;100.00;97294.22;5034003;28;21044;-81
2021/10/31 08:10:11;;;;;;;5.77;5.17;;;11.70;99.90;;;12.42;100.00;97294.97;5034891;28;20555;-80
2021/10/31 08:12:41;;;;;;;5.50;4.47;;;11.80;99.90;;;12.47;100.00;97297.72;5040083;28;20519;-82
2021/10/31 08:15:10;;;;;;;7.43;5.00;;;11.80;99.90;;;12.52;100.00;97303.13;5031695;28;20497;-81
2021/10/31 08:17:38;;;;;;;7.40;4.73;;;12.00;99.90;;;12.60;100.00;97299.38;5035337;28;21116;-84
2021/10/31 08:20:09;;;;;;;7.87;5.17;;;12.00;99.90;;;12.66;100.00;97295.91;5033045;28;20470;-82
2021/10/31 08:22:37;;;;;;;9.43;5.00;;;12.10;99.90;;;12.73;100.00;97293.22;5034885;28;20473;-83
2021/10/31 08:25:08;;;;;;;6.67;4.70;;;12.10;99.90;;;12.78;100.00;97294.16;5031078;28;20914;-82
2021/10/31 08:27:37;;;;;;;10.03;5.83;;;12.20;99.90;;;12.85;100.00;97291.44;5033139;28;20559;-83
2021/10/31 08:30:07;;;;;;;6.23;4.33;;;12.30;99.90;;;12.91;100.00;97299.25;5031578;28;20622;-82
2021/10/31 08:32:48;;;;;;;10.00;5.07;;;12.40;99.90;;;12.99;100.00;97300.78;5030277;28;20508;-82
2021/10/31 08:35:17;;;;;;;8.90;5.30;;;12.50;99.90;;;13.04;100.00;97296.47;5037168;28;20492;-82
2021/10/31 08:37:46;;;;;;;8.97;4.93;;;12.50;99.90;;;13.12;100.00;97295.38;5030823;28;20865;-81
2021/10/31 08:40:16;;;;;;;4.20;3.80;;;12.60;99.90;;;13.18;100.00;97289.25;5030797;28;20546;-82
2021/10/31 08:42:45;;;;;;;6.80;3.27;;;12.70;99.90;;;13.23;100.00;97288.59;5032530;28;20457;-83
2021/10/31 08:45:14;;;;;;;39.67;24.97;;;12.70;99.90;;;13.28;100.00;97289.53;5040575;28;20600;-82
2021/10/31 08:47:43;;;;;;;9.93;5.60;;;12.80;99.90;;;13.33;100.00;97284.41;5035596;28;20520;-81
2021/10/31 08:50:13;;;;;;;4.10;3.57;;;12.80;99.90;;;13.38;100.00;97279.28;5035551;28;20926;-82
2021/10/31 08:52:42;;;;;;;5.87;3.23;;;12.90;99.90;;;13.44;100.00;97280.22;5037072;28;20486;-85
2021/10/31 08:55:11;;;;;;;3.80;3.23;;;12.90;99.90;;;13.48;100.00;97284.81;5033900;28;20514;-82
2021/10/31 08:57:42;;;;;;;5.77;2.80;;;13.00;99.90;;;13.53;100.00;97281.50;5032915;28;20547;-82
2021/10/31 09:00:12;;;;;;;7.30;3.07;;;13.00;99.90;;;13.56;100.00;97287.13;5030019;28;20520;-81
2021/10/31 09:02:44;;;;;;;24.10;3.37;;;13.10;99.90;;;13.61;100.00;97281.97;5035104;28;21257;-82
2021/10/31 09:05:13;;;;;;;4.27;3.17;;;13.10;99.90;;;13.67;100.00;97282.13;5032463;28;20466;-83
2021/10/31 09:07:42;;;;;;;4.27;2.70;;;13.20;99.90;;;13.70;100.00;97276.41;5030447;28;20466;-82
2021/10/31 09:10:11;;;;;;;3.37;2.20;;;13.20;99.90;;;13.77;100.00;97277.13;5030639;28;20945;-82
2021/10/31 09:12:41;;;;;;;5.00;2.90;;;13.30;99.90;;;13.81;100.00;97258.03;5035128;28;20461;-82
2021/10/31 09:15:10;;;;;;;2.50;2.30;;;13.40;99.90;;;13.87;100.00;97266.84;5031607;28;21342;-82
2021/10/31 09:17:44;;;;;;;48.33;33.10;;;13.40;99.90;;;13.92;100.00;97259.06;5034634;28;20469;-82
2021/10/31 09:20:14;;;;;;;8.50;4.40;;;13.50;99.90;;;13.98;100.00;97253.72;5033776;28;20465;-82
2021/10/31 09:22:43;;;;;;;88.20;51.00;;;13.50;99.90;;;14.04;100.00;97257.25;5034274;28;20466;-82
2021/10/31 09:25:12;;;;;;;18.43;11.20;;;13.60;99.90;;;14.11;100.00;97252.69;5027563;28;20552;-82
2021/10/31 09:27:41;;;;;;;2.03;1.80;;;13.70;99.90;;;14.17;100.00;97245.69;5036570;28;21273;-83
2021/10/31 09:30:12;;;;;;;3.03;1.80;;;13.70;99.90;;;14.22;100.00;97244.00;5034378;28;20916;-81
2021/10/31 09:32:49;;;;;;;1.87;1.60;;;13.80;99.90;;;14.30;100.00;97234.97;5043959;28;20464;-82
2021/10/31 09:35:20;;;;;;;1.53;1.33;;;13.90;99.90;;;14.35;100.00;97233.25;5031088;28;20524;-82
2021/10/31 09:37:53;;;;;;;5.47;1.63;;;14.00;99.90;;;14.43;100.00;97225.03;5034736;28;20593;-82
2021/10/31 09:40:23;;;;;;;1.20;1.10;;;14.00;99.90;;;14.47;100.00;97220.88;5030780;28;20481;-82
2021/10/31 09:42:55;;;;;;;3.37;1.30;;;14.10;99.90;;;14.54;100.00;97224.19;5038447;28;20527;-82
2021/10/31 09:45:25;;;;;;;4.57;1.57;;;14.10;99.90;;;14.58;100.00;97212.16;5031223;28;20464;-82
2021/10/31 09:47:56;;;;;;;1.97;1.10;;;14.20;99.90;;;14.62;100.00;97217.75;5034178;28;20457;-84
2021/10/31 09:50:28;;;;;;;1.37;1.17;;;14.20;99.90;;;14.65;100.00;97219.16;5033716;28;20455;-84
2021/10/31 09:52:57;;;;;;;2.93;1.17;;;14.20;99.90;;;14.68;100.00;97216.84;5031593;28;20555;-84
2021/10/31 09:55:26;;;;;;;3.73;1.50;;;14.30;99.90;;;14.69;100.00;97205.28;5046464;28;20543;-84
2021/10/31 09:57:57;;;;;;;1.87;1.10;;;14.30;99.90;;;14.73;100.00;97211.69;5034456;28;21029;-84
2021/10/31 10:00:37;;;;;;;2.53;1.30;;;14.30;99.90;;;14.74;100.00;97204.59;5033820;28;20516;-84
2021/10/31 10:06:18;;;;;;;1.50;1.00;;;14.30;99.90;;;14.81;100.00;97186.81;5025801;28;20549;-84
2021/10/31 10:09:06;;;;;;;1.13;1.03;;;14.40;99.90;;;14.81;100.00;97192.88;5036921;28;20449;-84
2021/10/31 10:11:38;;;;;;;3.87;1.20;;;14.40;99.90;;;14.84;100.00;97173.19;5035448;28;20510;-84
2021/10/31 10:14:19;;;;;;;5.23;1.50;;;14.50;99.90;;;14.89;100.00;97173.28;5038052;28;20470;-85
2021/10/31 10:16:48;;;;;;;5.10;1.63;;;14.50;99.90;;;14.91;100.00;97168.56;5030509;28;20489;-84
2021/10/31 10:19:24;;;;;;;3.53;1.23;;;14.50;99.90;;;14.96;100.00;97164.19;5034394;28;20526;-84
2021/10/31 10:22:03;;;;;;;1.03;0.93;;;14.50;99.90;;;15.00;100.00;97157.44;5038823;28;20848;-84
2021/10/31 10:24:35;;;;;;;1.37;1.10;;;14.70;99.90;;;15.04;100.00;97152.47;5032945;28;20507;-84
2021/10/31 10:27:08;;;;;;;1.77;1.40;;;14.70;99.90;;;15.07;100.00;97154.63;5033547;28;20462;-85
2021/10/31 10:29:41;;;;;;;1.93;1.20;;;14.70;99.90;;;15.10;100.00;97159.44;5034224;28;20454;-84
2021/10/31 10:32:13;;;;;;;2.83;1.47;;;14.70;99.90;;;15.14;100.00;97152.66;5043438;28;20445;-84